This is the latest recevied weather packets stored in our database for station/object EW3591. If no packets are shown the sender has not sent any weather packets the latest 1 day(s).
| Time | Temp. | Humidity | Pressure | Rain* | Wind** | Luminosity | Snow |
|---|---|---|---|---|---|---|---|
| 1778032282 | 8.89° C | 96% | 1008.3 hPa | 0.51 mm | 0.45 m/s, 227° | - | - |
| 1778032161 | 8.89° C | 96% | 1008.3 hPa | 0.51 mm | 0.45 m/s, 233° | - | - |
| 1778032041 | 8.89° C | 96% | 1008.2 hPa | 0.51 mm | 0 m/s | - | - |
| 1778031921 | 8.89° C | 96% | 1008 hPa | 0.51 mm | 0 m/s | - | - |
| 1778031800 | 8.89° C | 96% | 1008 hPa | 0.51 mm | 0 m/s | - | - |
| 1778031680 | 8.89° C | 96% | 1007.9 hPa | 0.51 mm | 0 m/s | - | - |
| 1778031560 | 8.89° C | 96% | 1007.8 hPa | 0.51 mm | 0 m/s | - | - |
| 1778031439 | 8.89° C | 95% | 1008 hPa | 0.51 mm | 0 m/s | - | - |
| 1778031319 | 8.89° C | 95% | 1008.1 hPa | 0.51 mm | 0 m/s | - | - |
| 1778031199 | 8.89° C | 95% | 1008.1 hPa | 0.51 mm | 0.89 m/s, 233° | - | - |
| 1778031079 | 8.89° C | 95% | 1008.2 hPa | 0.51 mm | 0.45 m/s, 245° | - | - |
| 1778030958 | 8.89° C | 95% | 1008.2 hPa | 0.51 mm | 0 m/s | - | - |
| 1778030838 | 8.89° C | 95% | 1008.2 hPa | 0.51 mm | 0 m/s | - | - |
| 1778030718 | 8.89° C | 95% | 1008.3 hPa | 0.51 mm | 0.45 m/s, 249° | - | - |
| 1778030597 | 8.89° C | 95% | 1008.4 hPa | 0.76 mm | 0.89 m/s, 245° | - | - |
| 1778030477 | 8.89° C | 95% | 1008.5 hPa | 0.76 mm | 0.89 m/s, 224° | - | - |
| 1778030357 | 8.89° C | 95% | 1008.4 hPa | 0.76 mm | 1.34 m/s, 228° | - | - |
| 1778030236 | 8.89° C | 95% | 1008.5 hPa | 0.76 mm | 1.79 m/s, 226° | - | - |
| 1778030128 | 9.44° C | 95% | 1008.5 hPa | 0.76 mm | 1.34 m/s, 231° | - | - |
| 1778029996 | 8.89° C | 95% | 1008.4 hPa | 0.76 mm | 0.89 m/s, 237° | - | - |
| 1778029876 | 9.44° C | 95% | 1008.3 hPa | 0.76 mm | 1.34 m/s, 233° | - | - |
| 1778029755 | 9.44° C | 95% | 1008.3 hPa | 0.51 mm | 1.34 m/s, 233° | - | - |
| 1778029635 | 9.44° C | 95% | 1008.2 hPa | 0.51 mm | 1.79 m/s, 220° | - | - |
| 1778029515 | 9.44° C | 95% | 1008.2 hPa | 0.51 mm | 1.79 m/s, 222° | - | - |
| 1778029394 | 9.44° C | 95% | 1008.2 hPa | 0.51 mm | 1.34 m/s, 232° | - | - |
* Rain latest hour (hover to see other rain measurements)
** Current wind speed in m/s (hover to see current wind gust speed)